sensor_id;sensor_type;location;lat;lon;timestamp;pressure;altitude;pressure_sealevel;temperature;humidity
6952;BME280;3515;50.138;8.502;2022-07-21T00:01:37;101880;;;20.8;92.4
6952;BME280;3515;50.138;8.502;2022-07-21T00:04:03;101890;;;20.8;92.4
6952;BME280;3515;50.138;8.502;2022-07-21T00:06:28;101850;;;20.7;92.4
6952;BME280;3515;50.138;8.502;2022-07-21T00:08:53;101870;;;20.6;92.4
6952;BME280;3515;50.138;8.502;2022-07-21T00:11:18;101870;;;20.6;92.4
6952;BME280;3515;50.138;8.502;2022-07-21T00:13:44;101870;;;20.6;92.4
6952;BME280;3515;50.138;8.502;2022-07-21T00:16:09;101870;;;20.6;92.4
6952;BME280;3515;50.138;8.502;2022-07-21T00:18:34;101860;;;20.6;92.4
6952;BME280;3515;50.138;8.502;2022-07-21T00:20:59;101880;;;20.5;91.9
6952;BME280;3515;50.138;8.502;2022-07-21T00:23:25;101880;;;20.4;91.8
6952;BME280;3515;50.138;8.502;2022-07-21T00:25:50;101900;;;20.4;91.8
6952;BME280;3515;50.138;8.502;2022-07-21T00:28:15;101880;;;20.4;91.8
6952;BME280;3515;50.138;8.502;2022-07-21T00:30:41;101890;;;20.4;91.8
6952;BME280;3515;50.138;8.502;2022-07-21T00:33:06;101880;;;20.4;91.8
6952;BME280;3515;50.138;8.502;2022-07-21T00:35:31;101910;;;20.4;91.9
6952;BME280;3515;50.138;8.502;2022-07-21T00:37:56;101910;;;20.4;91.9
6952;BME280;3515;50.138;8.502;2022-07-21T00:40:22;101900;;;20.4;91.9
6952;BME280;3515;50.138;8.502;2022-07-21T00:42:47;101910;;;20.4;91.9
6952;BME280;3515;50.138;8.502;2022-07-21T00:45:12;101910;;;20.4;91.9
6952;BME280;3515;50.138;8.502;2022-07-21T00:47:37;101910;;;20.4;91.9
6952;BME280;3515;50.138;8.502;2022-07-21T00:50:05;101920;;;20.5;91.9
6952;BME280;3515;50.138;8.502;2022-07-21T00:52:28;101890;;;20.4;91.9
6952;BME280;3515;50.138;8.502;2022-07-21T00:54:53;101900;;;20.5;91.9
6952;BME280;3515;50.138;8.502;2022-07-21T00:57:18;101900;;;20.4;91.9
6952;BME280;3515;50.138;8.502;2022-07-21T00:59:44;101900;;;20.4;91.9
6952;BME280;3515;50.138;8.502;2022-07-21T01:02:09;101900;;;20.4;91.9
6952;BME280;3515;50.138;8.502;2022-07-21T01:04:34;101910;;;20.4;91.9
6952;BME280;3515;50.138;8.502;2022-07-21T01:07:00;101890;;;20.4;91.9
6952;BME280;3515;50.138;8.502;2022-07-21T01:09:25;101870;;;20.4;91.9
6952;BME280;3515;50.138;8.502;2022-07-21T01:11:50;101860;;;20.4;92.4
6952;BME280;3515;50.138;8.502;2022-07-21T01:14:16;101880;;;20.4;92.4
6952;BME280;3515;50.138;8.502;2022-07-21T01:16:41;101880;;;20.4;92.4
6952;BME280;3515;50.138;8.502;2022-07-21T01:19:06;101890;;;20.4;92.4
6952;BME280;3515;50.138;8.502;2022-07-21T01:21:33;101880;;;20.4;92.4
6952;BME280;3515;50.138;8.502;2022-07-21T01:23:57;101880;;;20.4;92.4
6952;BME280;3515;50.138;8.502;2022-07-21T01:26:22;101900;;;20.5;92.4
6952;BME280;3515;50.138;8.502;2022-07-21T01:28:47;101900;;;20.5;92.4
6952;BME280;3515;50.138;8.502;2022-07-21T01:31:12;101900;;;20.5;92.4
6952;BME280;3515;50.138;8.502;2022-07-21T01:33:39;101910;;;20.5;92.4
6952;BME280;3515;50.138;8.502;2022-07-21T01:36:03;101890;;;20.5;92.4
6952;BME280;3515;50.138;8.502;2022-07-21T01:38:28;101900;;;20.5;92.4
6952;BME280;3515;50.138;8.502;2022-07-21T01:40:57;101890;;;20.5;92.4
6952;BME280;3515;50.138;8.502;2022-07-21T01:43:19;101900;;;20.5;92.4
6952;BME280;3515;50.138;8.502;2022-07-21T01:45:44;101900;;;20.5;92.4
6952;BME280;3515;50.138;8.502;2022-07-21T01:48:09;101910;;;20.5;92.4
6952;BME280;3515;50.138;8.502;2022-07-21T01:50:35;101920;;;20.5;92.4
6952;BME280;3515;50.138;8.502;2022-07-21T01:53:00;101900;;;20.5;92.4
6952;BME280;3515;50.138;8.502;2022-07-21T01:55:26;101910;;;20.4;92.4
6952;BME280;3515;50.138;8.502;2022-07-21T01:57:51;101940;;;20.1;91.8
6952;BME280;3515;50.138;8.502;2022-07-21T02:00:16;101930;;;20.0;90.8
6952;BME280;3515;50.138;8.502;2022-07-21T02:02:41;101940;;;20.0;90.3
6952;BME280;3515;50.138;8.502;2022-07-21T02:05:07;101930;;;20.0;89.9
6952;BME280;3515;50.138;8.502;2022-07-21T02:07:32;101940;;;19.9;89.3
6952;BME280;3515;50.138;8.502;2022-07-21T02:09:57;101950;;;19.8;89.3
6952;BME280;3515;50.138;8.502;2022-07-21T02:12:22;101940;;;19.7;89.3
6952;BME280;3515;50.138;8.502;2022-07-21T02:14:48;101940;;;19.7;89.3
6952;BME280;3515;50.138;8.502;2022-07-21T02:17:13;101900;;;19.6;89.8
6952;BME280;3515;50.138;8.502;2022-07-21T02:19:38;101930;;;19.5;89.8
6952;BME280;3515;50.138;8.502;2022-07-21T02:22:04;101940;;;19.4;89.8
6952;BME280;3515;50.138;8.502;2022-07-21T02:24:29;101940;;;19.3;89.3
6952;BME280;3515;50.138;8.502;2022-07-21T02:26:54;101910;;;19.3;89.3
6952;BME280;3515;50.138;8.502;2022-07-21T02:29:20;101920;;;19.1;89.4
6952;BME280;3515;50.138;8.502;2022-07-21T02:31:45;101940;;;19.1;89.4
6952;BME280;3515;50.138;8.502;2022-07-21T02:34:17;101910;;;19.1;89.4
6952;BME280;3515;50.138;8.502;2022-07-21T02:36:40;101930;;;19.1;89.4
6952;BME280;3515;50.138;8.502;2022-07-21T02:39:06;101920;;;18.9;89.4
6952;BME280;3515;50.138;8.502;2022-07-21T02:41:31;101950;;;18.9;89.4
6952;BME280;3515;50.138;8.502;2022-07-21T02:43:56;101950;;;18.8;89.3
6952;BME280;3515;50.138;8.502;2022-07-21T02:46:21;101940;;;18.8;89.9
6952;BME280;3515;50.138;8.502;2022-07-21T02:48:47;101950;;;18.7;89.4
6952;BME280;3515;50.138;8.502;2022-07-21T02:51:12;101940;;;18.6;89.4
6952;BME280;3515;50.138;8.502;2022-07-21T02:53:37;101910;;;18.6;89.4
6952;BME280;3515;50.138;8.502;2022-07-21T02:56:03;101940;;;18.6;89.9
6952;BME280;3515;50.138;8.502;2022-07-21T02:58:29;101930;;;18.5;89.9
6952;BME280;3515;50.138;8.502;2022-07-21T03:00:54;101950;;;18.5;89.4
6952;BME280;3515;50.138;8.502;2022-07-21T03:03:19;101950;;;18.4;89.9
6952;BME280;3515;50.138;8.502;2022-07-21T03:05:44;101940;;;18.4;89.9
6952;BME280;3515;50.138;8.502;2022-07-21T03:08:09;101930;;;18.4;89.9
6952;BME280;3515;50.138;8.502;2022-07-21T03:10:34;101950;;;18.4;89.9
6952;BME280;3515;50.138;8.502;2022-07-21T03:13:00;101960;;;18.4;89.9
6952;BME280;3515;50.138;8.502;2022-07-21T03:15:25;101980;;;18.4;89.9
6952;BME280;3515;50.138;8.502;2022-07-21T03:17:50;101960;;;18.4;89.9
6952;BME280;3515;50.138;8.502;2022-07-21T03:20:15;101950;;;18.3;89.9
6952;BME280;3515;50.138;8.502;2022-07-21T03:22:40;101960;;;18.4;89.4
6952;BME280;3515;50.138;8.502;2022-07-21T03:25:06;101960;;;18.3;89.4
6952;BME280;3515;50.138;8.502;2022-07-21T03:27:31;101970;;;18.4;89.4
6952;BME280;3515;50.138;8.502;2022-07-21T03:29:56;101970;;;18.2;89.4
6952;BME280;3515;50.138;8.502;2022-07-21T03:32:21;101980;;;18.3;88.4
6952;BME280;3515;50.138;8.502;2022-07-21T03:34:47;101990;;;18.3;88.4
6952;BME280;3515;50.138;8.502;2022-07-21T03:37:12;102000;;;18.4;88.9
6952;BME280;3515;50.138;8.502;2022-07-21T03:39:37;101980;;;18.4;88.9
6952;BME280;3515;50.138;8.502;2022-07-21T03:42:03;101990;;;18.5;88.9
6952;BME280;3515;50.138;8.502;2022-07-21T03:44:28;102030;;;18.5;88.9
6952;BME280;3515;50.138;8.502;2022-07-21T03:46:53;102000;;;18.4;88.9
6952;BME280;3515;50.138;8.502;2022-07-21T03:49:18;102000;;;18.4;88.4
6952;BME280;3515;50.138;8.502;2022-07-21T03:51:44;102020;;;18.4;88.4
6952;BME280;3515;50.138;8.502;2022-07-21T03:54:09;102020;;;18.4;88.4
6952;BME280;3515;50.138;8.502;2022-07-21T03:56:34;102010;;;18.5;88.4
6952;BME280;3515;50.138;8.502;2022-07-21T03:58:59;102030;;;18.4;88.4
6952;BME280;3515;50.138;8.502;2022-07-21T04:01:24;102020;;;18.4;88.4
6952;BME280;3515;50.138;8.502;2022-07-21T04:03:50;102010;;;18.4;88.4
6952;BME280;3515;50.138;8.502;2022-07-21T04:06:15;102010;;;18.4;88.4
6952;BME280;3515;50.138;8.502;2022-07-21T04:08:40;102040;;;18.4;88.4
6952;BME280;3515;50.138;8.502;2022-07-21T04:11:05;102010;;;18.4;88.4
6952;BME280;3515;50.138;8.502;2022-07-21T04:13:31;102050;;;18.4;88.4
6952;BME280;3515;50.138;8.502;2022-07-21T04:15:56;102010;;;18.4;88.4
6952;BME280;3515;50.138;8.502;2022-07-21T04:18:21;102030;;;18.4;88.4
6952;BME280;3515;50.138;8.502;2022-07-21T04:20:47;102040;;;18.4;88.4
6952;BME280;3515;50.138;8.502;2022-07-21T04:23:12;102000;;;18.4;88.4
6952;BME280;3515;50.138;8.502;2022-07-21T04:25:37;102010;;;18.4;88.4
6952;BME280;3515;50.138;8.502;2022-07-21T04:28:02;102010;;;18.4;88.4
6952;BME280;3515;50.138;8.502;2022-07-21T04:30:28;102020;;;18.4;88.9
6952;BME280;3515;50.138;8.502;2022-07-21T04:32:53;102030;;;18.4;88.9
6952;BME280;3515;50.138;8.502;2022-07-21T04:35:18;102030;;;18.4;88.9
6952;BME280;3515;50.138;8.502;2022-07-21T04:37:43;102030;;;18.4;88.9
6952;BME280;3515;50.138;8.502;2022-07-21T04:40:09;102050;;;18.4;88.9
6952;BME280;3515;50.138;8.502;2022-07-21T04:42:34;102040;;;18.4;88.9
6952;BME280;3515;50.138;8.502;2022-07-21T04:44:59;102020;;;18.5;88.9
6952;BME280;3515;50.138;8.502;2022-07-21T04:47:24;102040;;;18.5;88.9
6952;BME280;3515;50.138;8.502;2022-07-21T04:49:49;102040;;;18.5;88.9
6952;BME280;3515;50.138;8.502;2022-07-21T04:52:15;102040;;;18.5;88.9
6952;BME280;3515;50.138;8.502;2022-07-21T04:54:40;102050;;;18.5;88.4
6952;BME280;3515;50.138;8.502;2022-07-21T04:57:05;102040;;;18.5;88.4
6952;BME280;3515;50.138;8.502;2022-07-21T04:59:31;102060;;;18.5;87.9
6952;BME280;3515;50.138;8.502;2022-07-21T05:01:56;102060;;;18.6;87.9
6952;BME280;3515;50.138;8.502;2022-07-21T05:04:21;102060;;;18.6;87.9
6952;BME280;3515;50.138;8.502;2022-07-21T05:06:46;102070;;;18.7;87.9
6952;BME280;3515;50.138;8.502;2022-07-21T05:09:11;102070;;;18.7;87.4
6952;BME280;3515;50.138;8.502;2022-07-21T05:11:37;102060;;;18.7;87.9
6952;BME280;3515;50.138;8.502;2022-07-21T05:14:02;102050;;;18.6;87.4
6952;BME280;3515;50.138;8.502;2022-07-21T05:16:27;102060;;;18.6;87.4
6952;BME280;3515;50.138;8.502;2022-07-21T05:18:52;102050;;;18.6;87.4
6952;BME280;3515;50.138;8.502;2022-07-21T05:21:18;102060;;;18.7;87.4
6952;BME280;3515;50.138;8.502;2022-07-21T05:23:43;102060;;;18.7;87.4
6952;BME280;3515;50.138;8.502;2022-07-21T05:26:08;102070;;;18.7;87.4
6952;BME280;3515;50.138;8.502;2022-07-21T05:28:33;102090;;;18.7;87.0
6952;BME280;3515;50.138;8.502;2022-07-21T05:30:59;102080;;;18.8;87.0
6952;BME280;3515;50.138;8.502;2022-07-21T05:33:24;102060;;;18.8;87.4
6952;BME280;3515;50.138;8.502;2022-07-21T05:35:49;102050;;;18.8;86.5
6952;BME280;3515;50.138;8.502;2022-07-21T05:38:14;102050;;;18.8;86.5
6952;BME280;3515;50.138;8.502;2022-07-21T05:40:40;102040;;;18.8;86.5
6952;BME280;3515;50.138;8.502;2022-07-21T05:43:05;102050;;;18.8;86.5
6952;BME280;3515;50.138;8.502;2022-07-21T05:45:30;102050;;;18.9;86.5
6952;BME280;3515;50.138;8.502;2022-07-21T05:47:55;102060;;;18.9;86.0
6952;BME280;3515;50.138;8.502;2022-07-21T05:50:21;102060;;;18.9;86.4
6952;BME280;3515;50.138;8.502;2022-07-21T05:52:46;102080;;;18.9;86.4
6952;BME280;3515;50.138;8.502;2022-07-21T05:55:11;102070;;;19.0;87.0
6952;BME280;3515;50.138;8.502;2022-07-21T05:57:36;102060;;;19.1;86.5
6952;BME280;3515;50.138;8.502;2022-07-21T06:00:02;102050;;;19.2;86.0
6952;BME280;3515;50.138;8.502;2022-07-21T06:02:27;102080;;;19.3;85.5
6952;BME280;3515;50.138;8.502;2022-07-21T06:04:52;102090;;;19.5;84.6
6952;BME280;3515;50.138;8.502;2022-07-21T06:07:17;102090;;;19.7;84.6
6952;BME280;3515;50.138;8.502;2022-07-21T06:09:43;102070;;;19.9;84.1
6952;BME280;3515;50.138;8.502;2022-07-21T06:12:08;102080;;;19.9;84.0
6952;BME280;3515;50.138;8.502;2022-07-21T06:14:33;102120;;;19.9;83.5
6952;BME280;3515;50.138;8.502;2022-07-21T06:16:58;102090;;;20.1;83.5
6952;BME280;3515;50.138;8.502;2022-07-21T06:19:24;102080;;;20.2;83.0
6952;BME280;3515;50.138;8.502;2022-07-21T06:21:49;102110;;;20.2;83.0
6952;BME280;3515;50.138;8.502;2022-07-21T06:24:14;102080;;;20.1;83.0
6952;BME280;3515;50.138;8.502;2022-07-21T06:26:39;102110;;;20.0;83.5
6952;BME280;3515;50.138;8.502;2022-07-21T06:29:05;102100;;;20.1;83.0
6952;BME280;3515;50.138;8.502;2022-07-21T06:31:30;102080;;;20.1;83.5
6952;BME280;3515;50.138;8.502;2022-07-21T06:33:55;102070;;;20.1;82.5
6952;BME280;3515;50.138;8.502;2022-07-21T06:36:20;102080;;;20.1;82.5
6952;BME280;3515;50.138;8.502;2022-07-21T06:38:45;102110;;;20.1;82.5
6952;BME280;3515;50.138;8.502;2022-07-21T06:41:11;102090;;;20.1;83.0
6952;BME280;3515;50.138;8.502;2022-07-21T06:43:36;102080;;;20.1;83.0
6952;BME280;3515;50.138;8.502;2022-07-21T06:46:01;102100;;;20.0;82.5
6952;BME280;3515;50.138;8.502;2022-07-21T06:48:26;102090;;;20.0;83.0
6952;BME280;3515;50.138;8.502;2022-07-21T06:50:52;102110;;;20.0;83.0
6952;BME280;3515;50.138;8.502;2022-07-21T06:53:17;102100;;;20.1;82.5
6952;BME280;3515;50.138;8.502;2022-07-21T06:55:42;102120;;;20.4;82.0
6952;BME280;3515;50.138;8.502;2022-07-21T06:58:08;102100;;;20.5;81.5
6952;BME280;3515;50.138;8.502;2022-07-21T07:00:33;102110;;;20.8;80.5
6952;BME280;3515;50.138;8.502;2022-07-21T07:02:58;102110;;;20.6;81.5
6952;BME280;3515;50.138;8.502;2022-07-21T07:05:23;102120;;;20.9;81.1
6952;BME280;3515;50.138;8.502;2022-07-21T07:07:48;102100;;;20.8;81.0
6952;BME280;3515;50.138;8.502;2022-07-21T07:10:14;102110;;;20.8;81.0
6952;BME280;3515;50.138;8.502;2022-07-21T07:12:39;102130;;;20.9;81.0
6952;BME280;3515;50.138;8.502;2022-07-21T07:15:05;102120;;;21.1;79.5
6952;BME280;3515;50.138;8.502;2022-07-21T07:17:30;102100;;;21.1;79.5
6952;BME280;3515;50.138;8.502;2022-07-21T07:19:55;102120;;;21.0;79.0
6952;BME280;3515;50.138;8.502;2022-07-21T07:22:20;102120;;;20.8;79.0
6952;BME280;3515;50.138;8.502;2022-07-21T07:24:45;102120;;;20.9;79.0
6952;BME280;3515;50.138;8.502;2022-07-21T07:27:11;102130;;;21.0;78.5
6952;BME280;3515;50.138;8.502;2022-07-21T07:29:36;102110;;;21.3;78.0
6952;BME280;3515;50.138;8.502;2022-07-21T07:32:01;102120;;;21.3;78.0
6952;BME280;3515;50.138;8.502;2022-07-21T07:34:26;102120;;;21.5;77.5
6952;BME280;3515;50.138;8.502;2022-07-21T07:36:52;102130;;;21.4;76.5
6952;BME280;3515;50.138;8.502;2022-07-21T07:39:17;102120;;;21.4;77.0
6952;BME280;3515;50.138;8.502;2022-07-21T07:41:49;102150;;;21.4;77.3
6952;BME280;3515;50.138;8.502;2022-07-21T07:44:12;102130;;;21.4;77.0
6952;BME280;3515;50.138;8.502;2022-07-21T07:46:38;102130;;;21.4;76.5
6952;BME280;3515;50.138;8.502;2022-07-21T07:49:03;102140;;;21.2;76.0
6952;BME280;3515;50.138;8.502;2022-07-21T07:51:28;102130;;;21.3;76.0
6952;BME280;3515;50.138;8.502;2022-07-21T07:53:54;102150;;;21.2;76.0
6952;BME280;3515;50.138;8.502;2022-07-21T07:56:19;102120;;;21.4;76.0
6952;BME280;3515;50.138;8.502;2022-07-21T07:58:44;102120;;;21.4;76.0
6952;BME280;3515;50.138;8.502;2022-07-21T08:01:09;102110;;;21.5;76.0
6952;BME280;3515;50.138;8.502;2022-07-21T08:03:35;102130;;;21.4;76.5
6952;BME280;3515;50.138;8.502;2022-07-21T08:06:00;102130;;;21.7;75.5
6952;BME280;3515;50.138;8.502;2022-07-21T08:08:25;102120;;;21.9;74.5
6952;BME280;3515;50.138;8.502;2022-07-21T08:10:50;102110;;;21.7;75.5
6952;BME280;3515;50.138;8.502;2022-07-21T08:13:17;102120;;;21.8;75.0
6952;BME280;3515;50.138;8.502;2022-07-21T08:15:41;102120;;;21.8;74.5
6952;BME280;3515;50.138;8.502;2022-07-21T08:18:06;102120;;;22.0;74.0
6952;BME280;3515;50.138;8.502;2022-07-21T08:20:31;102100;;;22.4;73.5
6952;BME280;3515;50.138;8.502;2022-07-21T08:22:56;102100;;;22.5;72.5
6952;BME280;3515;50.138;8.502;2022-07-21T08:25:22;102120;;;22.7;72.5
6952;BME280;3515;50.138;8.502;2022-07-21T08:27:47;102140;;;22.8;72.9
6952;BME280;3515;50.138;8.502;2022-07-21T08:30:12;102110;;;22.4;72.5
6952;BME280;3515;50.138;8.502;2022-07-21T08:32:37;102140;;;22.4;72.5
6952;BME280;3515;50.138;8.502;2022-07-21T08:35:03;102120;;;22.1;73.0
6952;BME280;3515;50.138;8.502;2022-07-21T08:37:28;102120;;;22.0;73.0
6952;BME280;3515;50.138;8.502;2022-07-21T08:39:53;102130;;;22.1;73.0
6952;BME280;3515;50.138;8.502;2022-07-21T08:42:18;102140;;;22.0;73.0
6952;BME280;3515;50.138;8.502;2022-07-21T08:44:44;102140;;;21.9;73.0
6952;BME280;3515;50.138;8.502;2022-07-21T08:47:09;102110;;;21.9;73.0
6952;BME280;3515;50.138;8.502;2022-07-21T08:49:34;102120;;;22.0;72.5
6952;BME280;3515;50.138;8.502;2022-07-21T08:52:00;102120;;;22.2;72.0
6952;BME280;3515;50.138;8.502;2022-07-21T08:54:25;102110;;;22.3;72.0
6952;BME280;3515;50.138;8.502;2022-07-21T08:56:50;102100;;;22.5;71.5
6952;BME280;3515;50.138;8.502;2022-07-21T08:59:15;102150;;;22.4;71.5
6952;BME280;3515;50.138;8.502;2022-07-21T09:01:41;102120;;;22.3;71.6
6952;BME280;3515;50.138;8.502;2022-07-21T09:06:31;102100;;;22.1;72.0
6952;BME280;3515;50.138;8.502;2022-07-21T09:08:56;102120;;;22.2;72.5
6952;BME280;3515;50.138;8.502;2022-07-21T09:11:22;102100;;;22.4;72.0
6952;BME280;3515;50.138;8.502;2022-07-21T09:13:48;102110;;;22.4;71.5
6952;BME280;3515;50.138;8.502;2022-07-21T09:16:12;102110;;;22.5;70.5
6952;BME280;3515;50.138;8.502;2022-07-21T09:21:03;102090;;;22.9;69.0
6952;BME280;3515;50.138;8.502;2022-07-21T09:23:28;102100;;;22.9;68.5
6952;BME280;3515;50.138;8.502;2022-07-21T09:25:54;102070;;;23.2;68.0
6952;BME280;3515;50.138;8.502;2022-07-21T09:28:19;102080;;;23.3;67.5
6952;BME280;3515;50.138;8.502;2022-07-21T09:30:49;102090;;;23.4;66.5
6952;BME280;3515;50.138;8.502;2022-07-21T09:33:18;102070;;;23.7;66.5
6952;BME280;3515;50.138;8.502;2022-07-21T09:35:34;102100;;;23.6;66.0
6952;BME280;3515;50.138;8.502;2022-07-21T09:40:25;102080;;;24.0;64.5
6952;BME280;3515;50.138;8.502;2022-07-21T09:42:51;102080;;;24.3;65.0
6952;BME280;3515;50.138;8.502;2022-07-21T09:45:16;102080;;;24.1;63.5
6952;BME280;3515;50.138;8.502;2022-07-21T09:47:41;102090;;;23.9;64.5
6952;BME280;3515;50.138;8.502;2022-07-21T09:50:07;102070;;;24.0;63.0
6952;BME280;3515;50.138;8.502;2022-07-21T09:52:32;102110;;;23.9;64.0
6952;BME280;3515;50.138;8.502;2022-07-21T09:54:57;102080;;;23.9;63.5
6952;BME280;3515;50.138;8.502;2022-07-21T09:57:22;102090;;;23.9;63.5
6952;BME280;3515;50.138;8.502;2022-07-21T09:59:47;102090;;;23.8;63.5
6952;BME280;3515;50.138;8.502;2022-07-21T10:02:15;102070;;;23.7;63.0
6952;BME280;3515;50.138;8.502;2022-07-21T10:04:37;102080;;;23.7;63.0
6952;BME280;3515;50.138;8.502;2022-07-21T10:07:03;102100;;;23.6;64.0
6952;BME280;3515;50.138;8.502;2022-07-21T10:09:28;102080;;;23.6;64.0
6952;BME280;3515;50.138;8.502;2022-07-21T10:11:53;102100;;;23.5;64.0
6952;BME280;3515;50.138;8.502;2022-07-21T10:14:18;102060;;;23.5;65.1
6952;BME280;3515;50.138;8.502;2022-07-21T10:16:44;102100;;;23.4;66.5
6952;BME280;3515;50.138;8.502;2022-07-21T10:19:10;102080;;;23.2;67.0
6952;BME280;3515;50.138;8.502;2022-07-21T10:21:37;102080;;;23.1;67.5
6952;BME280;3515;50.138;8.502;2022-07-21T10:24:00;102060;;;23.1;68.0
6952;BME280;3515;50.138;8.502;2022-07-21T10:26:25;102070;;;23.0;68.0
6952;BME280;3515;50.138;8.502;2022-07-21T10:28:50;102070;;;23.1;66.5
6952;BME280;3515;50.138;8.502;2022-07-21T10:31:17;102070;;;23.5;66.5
6952;BME280;3515;50.138;8.502;2022-07-21T10:33:51;102090;;;23.6;66.5
6952;BME280;3515;50.138;8.502;2022-07-21T10:36:07;102070;;;23.5;66.0
6952;BME280;3515;50.138;8.502;2022-07-21T10:38:32;102050;;;23.6;66.0
6952;BME280;3515;50.138;8.502;2022-07-21T10:40:56;102080;;;23.6;66.0
6952;BME280;3515;50.138;8.502;2022-07-21T10:45:47;102060;;;23.5;64.5
6952;BME280;3515;50.138;8.502;2022-07-21T10:50:38;102050;;;23.8;65.0
6952;BME280;3515;50.138;8.502;2022-07-21T10:53:04;102060;;;23.9;65.0
6952;BME280;3515;50.138;8.502;2022-07-21T10:55:28;102040;;;24.0;65.5
6952;BME280;3515;50.138;8.502;2022-07-21T11:00:20;102090;;;24.1;63.5
6952;BME280;3515;50.138;8.502;2022-07-21T11:02:45;102050;;;24.1;63.0
6952;BME280;3515;50.138;8.502;2022-07-21T11:05:09;102050;;;24.1;63.0
6952;BME280;3515;50.138;8.502;2022-07-21T11:14:50;102030;;;25.0;59.9
6952;BME280;3515;50.138;8.502;2022-07-21T11:17:24;102030;;;25.2;59.4
6952;BME280;3515;50.138;8.502;2022-07-21T11:19:42;102040;;;25.4;58.9
6952;BME280;3515;50.138;8.502;2022-07-21T11:22:09;102050;;;25.4;58.4
6952;BME280;3515;50.138;8.502;2022-07-21T11:24:31;102040;;;25.7;55.4
6952;BME280;3515;50.138;8.502;2022-07-21T11:26:56;102020;;;25.7;54.4
6952;BME280;3515;50.138;8.502;2022-07-21T11:29:21;102020;;;25.8;55.5
6952;BME280;3515;50.138;8.502;2022-07-21T11:31:47;102020;;;25.7;55.0
6952;BME280;3515;50.138;8.502;2022-07-21T11:34:12;102040;;;25.6;55.5
6952;BME280;3515;50.138;8.502;2022-07-21T11:36:37;102020;;;25.6;55.5
6952;BME280;3515;50.138;8.502;2022-07-21T11:39:04;102020;;;25.8;55.0
6952;BME280;3515;50.138;8.502;2022-07-21T11:41:28;102020;;;25.9;54.5
6952;BME280;3515;50.138;8.502;2022-07-21T11:43:53;102020;;;25.8;55.0
6952;BME280;3515;50.138;8.502;2022-07-21T11:46:18;102010;;;26.2;53.5
6952;BME280;3515;50.138;8.502;2022-07-21T11:48:43;102020;;;26.6;54.0
6952;BME280;3515;50.138;8.502;2022-07-21T11:51:09;102020;;;26.6;52.5
6952;BME280;3515;50.138;8.502;2022-07-21T11:53:34;102000;;;26.4;51.5
6952;BME280;3515;50.138;8.502;2022-07-21T11:55:59;102050;;;26.7;50.5
6952;BME280;3515;50.138;8.502;2022-07-21T11:58:24;102010;;;26.6;50.5
6952;BME280;3515;50.138;8.502;2022-07-21T12:03:15;102010;;;26.4;50.0
6952;BME280;3515;50.138;8.502;2022-07-21T12:05:40;102020;;;26.4;50.0
6952;BME280;3515;50.138;8.502;2022-07-21T12:08:05;102000;;;26.5;49.5
6952;BME280;3515;50.138;8.502;2022-07-21T12:10:31;102020;;;26.8;48.5
6952;BME280;3515;50.138;8.502;2022-07-21T12:12:58;101990;;;26.9;48.5
6952;BME280;3515;50.138;8.502;2022-07-21T12:15:22;102000;;;26.8;49.0
6952;BME280;3515;50.138;8.502;2022-07-21T12:17:47;101990;;;27.0;48.0
6952;BME280;3515;50.138;8.502;2022-07-21T12:20:12;102020;;;27.1;47.5
6952;BME280;3515;50.138;8.502;2022-07-21T12:22:38;102010;;;27.0;47.5
6952;BME280;3515;50.138;8.502;2022-07-21T12:25:03;102010;;;27.1;47.5
6952;BME280;3515;50.138;8.502;2022-07-21T12:27:27;102000;;;27.1;47.0
6952;BME280;3515;50.138;8.502;2022-07-21T12:29:53;101990;;;27.4;47.0
6952;BME280;3515;50.138;8.502;2022-07-21T12:34:51;102000;;;27.4;47.0
6952;BME280;3515;50.138;8.502;2022-07-21T12:37:09;101980;;;27.2;47.0
6952;BME280;3515;50.138;8.502;2022-07-21T12:39:34;101990;;;27.6;47.0
6952;BME280;3515;50.138;8.502;2022-07-21T12:41:59;101990;;;27.7;46.5
6952;BME280;3515;50.138;8.502;2022-07-21T12:44:24;101980;;;27.9;47.5
6952;BME280;3515;50.138;8.502;2022-07-21T12:46:50;102000;;;28.0;47.5
6952;BME280;3515;50.138;8.502;2022-07-21T12:49:21;102010;;;28.0;47.0
6952;BME280;3515;50.138;8.502;2022-07-21T12:51:54;101990;;;28.2;46.5
6952;BME280;3515;50.138;8.502;2022-07-21T12:54:10;102000;;;28.4;45.5
6952;BME280;3515;50.138;8.502;2022-07-21T12:56:36;102000;;;28.4;45.0
6952;BME280;3515;50.138;8.502;2022-07-21T12:59:01;101980;;;28.3;44.5
6952;BME280;3515;50.138;8.502;2022-07-21T13:01:26;101980;;;28.4;44.5
6952;BME280;3515;50.138;8.502;2022-07-21T13:03:52;101980;;;28.4;46.0
6952;BME280;3515;50.138;8.502;2022-07-21T13:06:16;101970;;;28.4;45.0
6952;BME280;3515;50.138;8.502;2022-07-21T13:08:42;102000;;;28.6;45.0
6952;BME280;3515;50.138;8.502;2022-07-21T13:11:07;101990;;;28.4;46.0
6952;BME280;3515;50.138;8.502;2022-07-21T13:13:32;102020;;;28.4;45.0
6952;BME280;3515;50.138;8.502;2022-07-21T13:15:58;101980;;;28.5;45.0
6952;BME280;3515;50.138;8.502;2022-07-21T13:18:23;101970;;;28.4;45.0
6952;BME280;3515;50.138;8.502;2022-07-21T13:20:49;101960;;;28.2;45.0
6952;BME280;3515;50.138;8.502;2022-07-21T13:23:13;101930;;;28.0;45.0
6952;BME280;3515;50.138;8.502;2022-07-21T13:25:39;101980;;;28.0;45.0
6952;BME280;3515;50.138;8.502;2022-07-21T13:28:04;101960;;;27.9;46.0
6952;BME280;3515;50.138;8.502;2022-07-21T13:30:29;101970;;;27.9;46.0
6952;BME280;3515;50.138;8.502;2022-07-21T13:32:54;101980;;;27.8;46.0
6952;BME280;3515;50.138;8.502;2022-07-21T13:35:20;101980;;;27.6;45.5
6952;BME280;3515;50.138;8.502;2022-07-21T13:37:45;101960;;;27.6;45.5
6952;BME280;3515;50.138;8.502;2022-07-21T13:40:10;101980;;;27.5;46.1
6952;BME280;3515;50.138;8.502;2022-07-21T13:42:35;101960;;;27.5;46.5
6952;BME280;3515;50.138;8.502;2022-07-21T13:45:01;101970;;;27.4;46.5
6952;BME280;3515;50.138;8.502;2022-07-21T13:47:26;101970;;;27.4;46.5
6952;BME280;3515;50.138;8.502;2022-07-21T13:49:51;101970;;;27.4;47.0
6952;BME280;3515;50.138;8.502;2022-07-21T13:52:16;101960;;;27.4;46.5
6952;BME280;3515;50.138;8.502;2022-07-21T13:54:42;101960;;;27.5;46.0
6952;BME280;3515;50.138;8.502;2022-07-21T13:57:07;101960;;;27.7;45.5
6952;BME280;3515;50.138;8.502;2022-07-21T13:59:32;101950;;;28.0;46.0
6952;BME280;3515;50.138;8.502;2022-07-21T14:01:57;101970;;;27.9;46.5
6952;BME280;3515;50.138;8.502;2022-07-21T14:04:23;101960;;;28.0;46.0
6952;BME280;3515;50.138;8.502;2022-07-21T14:06:48;101950;;;28.3;44.5
6952;BME280;3515;50.138;8.502;2022-07-21T14:09:13;101940;;;28.4;44.5
6952;BME280;3515;50.138;8.502;2022-07-21T14:11:38;101960;;;28.5;44.0
6952;BME280;3515;50.138;8.502;2022-07-21T14:14:04;101950;;;28.4;44.0
6952;BME280;3515;50.138;8.502;2022-07-21T14:16:29;101950;;;28.4;44.0
6952;BME280;3515;50.138;8.502;2022-07-21T14:18:54;101970;;;28.4;43.5
6952;BME280;3515;50.138;8.502;2022-07-21T14:21:19;101970;;;28.4;43.5
6952;BME280;3515;50.138;8.502;2022-07-21T14:23:45;101950;;;28.4;43.5